createdAt,value
2023-03-29T00:02:10.806Z,100115.38
2023-03-29T00:04:38.997Z,100114.78
2023-03-29T00:07:05.991Z,100110.69
2023-03-29T00:09:33.508Z,100116.56
2023-03-29T00:12:01.541Z,100111.34
2023-03-29T00:14:30.824Z,100117.31
2023-03-29T00:16:58.489Z,100113.94
2023-03-29T00:19:25.577Z,100115.56
2023-03-29T00:21:52.232Z,100107.69
2023-03-29T00:24:18.931Z,100113.31
2023-03-29T00:26:45.545Z,100112.00
2023-03-29T00:29:12.122Z,100107.97
2023-03-29T00:31:38.712Z,100108.00
2023-03-29T00:34:05.351Z,100108.56
2023-03-29T00:36:31.917Z,100101.59
2023-03-29T00:38:58.530Z,100111.44
2023-03-29T00:41:26.142Z,100115.75
2023-03-29T00:43:54.291Z,100118.31
2023-03-29T00:46:21.690Z,100119.50
2023-03-29T00:48:49.527Z,100113.28
2023-03-29T00:51:18.949Z,100117.34
2023-03-29T00:53:57.626Z,100117.63
2023-03-29T00:56:34.965Z,100111.69
2023-03-29T00:59:35.721Z,100110.88
2023-03-29T01:02:07.320Z,100105.19
2023-03-29T01:04:52.596Z,100109.22
2023-03-29T01:07:25.521Z,100105.63
2023-03-29T01:10:12.880Z,100098.22
2023-03-29T01:12:46.736Z,100096.78
2023-03-29T01:15:14.571Z,100088.56
2023-03-29T01:17:43.490Z,100089.81
2023-03-29T01:20:20.576Z,100095.16
2023-03-29T01:22:52.954Z,100092.66
2023-03-29T01:25:45.982Z,100084.13
2023-03-29T01:28:21.414Z,100075.91
2023-03-29T01:31:11.918Z,100083.69
2023-03-29T01:33:53.244Z,100075.50
2023-03-29T01:36:27.751Z,100081.16
2023-03-29T01:38:58.000Z,100076.53
2023-03-29T01:41:39.763Z,100068.34
2023-03-29T01:44:12.430Z,100065.13
2023-03-29T01:46:48.257Z,100061.59
2023-03-29T01:49:18.832Z,100058.16
2023-03-29T01:51:53.007Z,100056.16
2023-03-29T01:54:28.564Z,100053.41
2023-03-29T01:56:57.263Z,100060.13
2023-03-29T01:59:29.643Z,100064.03
2023-03-29T02:02:00.467Z,100064.69
2023-03-29T02:04:34.691Z,100059.88
2023-03-29T02:07:05.248Z,100067.72
2023-03-29T02:09:33.531Z,100061.44
2023-03-29T02:12:02.245Z,100054.19
2023-03-29T02:14:30.457Z,100056.72
2023-03-29T02:16:57.068Z,100053.25
2023-03-29T02:19:25.495Z,100055.13
2023-03-29T02:22:10.367Z,100048.66
2023-03-29T02:24:40.861Z,100043.81
2023-03-29T02:27:07.717Z,100049.75
2023-03-29T02:29:34.334Z,100050.84
2023-03-29T02:32:16.844Z,100051.06
2023-03-29T02:35:26.594Z,100048.38
2023-03-29T02:37:56.132Z,100049.50
2023-03-29T02:40:26.089Z,100053.28
2023-03-29T02:42:56.036Z,100048.03
2023-03-29T02:45:24.076Z,100050.88
2023-03-29T02:47:56.028Z,100046.78
2023-03-29T02:50:24.226Z,100043.25
2023-03-29T02:52:56.088Z,100048.63
2023-03-29T02:55:25.219Z,100040.19
2023-03-29T02:57:51.957Z,100049.50
2023-03-29T03:00:19.898Z,100057.47
2023-03-29T03:02:47.731Z,100059.28
2023-03-29T03:05:14.402Z,100061.63
2023-03-29T03:07:40.949Z,100053.41
2023-03-29T03:10:10.262Z,100060.69
2023-03-29T03:12:37.493Z,100059.38
2023-03-29T03:15:05.704Z,100050.66
2023-03-29T03:17:33.567Z,100051.72
2023-03-29T03:20:00.703Z,100057.81
2023-03-29T03:22:27.328Z,100050.41
2023-03-29T03:24:53.966Z,100060.78
2023-03-29T03:27:20.602Z,100070.25
2023-03-29T03:29:47.322Z,100066.03
2023-03-29T03:32:13.992Z,100063.25
2023-03-29T03:34:40.524Z,100068.16
2023-03-29T03:37:07.185Z,100077.34
2023-03-29T03:39:33.804Z,100077.06
2023-03-29T03:42:00.380Z,100071.94
2023-03-29T03:44:26.964Z,100061.91
2023-03-29T03:46:53.548Z,100070.03
2023-03-29T03:49:21.902Z,100058.44
2023-03-29T03:51:49.849Z,100071.38
2023-03-29T03:54:18.137Z,100064.38
2023-03-29T03:56:44.669Z,100068.94
2023-03-29T03:59:11.257Z,100061.91
2023-03-29T04:01:37.908Z,100063.81
2023-03-29T04:04:04.704Z,100051.41
2023-03-29T04:06:31.526Z,100052.47
2023-03-29T04:08:58.118Z,100048.69
2023-03-29T04:11:24.649Z,100044.88
2023-03-29T04:13:51.187Z,100042.16
2023-03-29T04:16:17.772Z,100035.13
2023-03-29T04:18:44.581Z,100030.22
2023-03-29T04:21:11.220Z,100032.41
2023-03-29T04:23:37.803Z,100025.28
2023-03-29T04:26:04.600Z,100026.78
2023-03-29T04:28:31.175Z,100026.38
2023-03-29T04:30:57.839Z,100026.06
2023-03-29T04:33:24.480Z,100030.94
2023-03-29T04:35:51.133Z,100033.66
2023-03-29T04:38:17.968Z,100025.47
2023-03-29T04:40:44.726Z,100021.44
2023-03-29T04:43:11.329Z,100019.81
2023-03-29T04:45:38.168Z,100012.03
2023-03-29T04:48:05.711Z,100020.91
2023-03-29T04:50:32.400Z,100013.72
2023-03-29T04:53:00.353Z,100011.47
2023-03-29T04:55:27.090Z,100001.19
2023-03-29T04:57:54.121Z,100004.41
2023-03-29T05:00:27.081Z,100005.47
2023-03-29T05:02:54.032Z,100016.81
2023-03-29T05:05:21.134Z,100022.03
2023-03-29T05:07:48.039Z,100017.03
2023-03-29T05:10:15.011Z,100010.53
2023-03-29T05:12:41.815Z,100010.16
2023-03-29T05:15:09.693Z,99999.88
2023-03-29T05:17:36.478Z,99995.59
2023-03-29T05:20:09.556Z,100003.44
2023-03-29T05:22:36.597Z,100003.06
2023-03-29T05:25:03.560Z,99998.28
2023-03-29T05:27:30.809Z,99995.59
2023-03-29T05:29:57.586Z,99989.22
2023-03-29T05:32:24.336Z,99993.28
2023-03-29T05:34:51.552Z,99989.09
2023-03-29T05:37:18.083Z,99983.81
2023-03-29T05:39:45.268Z,99988.56
2023-03-29T05:42:15.724Z,99992.41
2023-03-29T05:44:42.472Z,99987.38
2023-03-29T05:47:09.260Z,99989.31
2023-03-29T05:49:35.862Z,99987.28
2023-03-29T05:52:02.539Z,99985.28
2023-03-29T05:54:29.109Z,99982.53
2023-03-29T05:56:55.989Z,99985.63
2023-03-29T05:59:23.836Z,99989.28
2023-03-29T06:01:51.999Z,99990.31
2023-03-29T06:04:19.091Z,99989.28
2023-03-29T06:06:46.321Z,99978.69
2023-03-29T06:09:12.966Z,99982.47
2023-03-29T06:11:39.688Z,99988.06
2023-03-29T06:14:06.640Z,99989.53
2023-03-29T06:16:33.453Z,99990.88
2023-03-29T06:19:00.505Z,99992.31
2023-03-29T06:21:28.217Z,99995.75
2023-03-29T06:23:55.099Z,99995.50
2023-03-29T06:26:21.878Z,99990.44
2023-03-29T06:28:51.366Z,99998.25
2023-03-29T06:31:19.991Z,99992.00
2023-03-29T06:33:47.535Z,100001.72
2023-03-29T06:36:16.319Z,100006.31
2023-03-29T06:38:45.652Z,100007.94
2023-03-29T06:41:12.289Z,100015.72
2023-03-29T06:43:39.282Z,100015.84
2023-03-29T06:46:11.827Z,100003.63
2023-03-29T06:48:39.807Z,100007.97
2023-03-29T06:51:07.611Z,100009.31
2023-03-29T06:53:34.903Z,100012.03
2023-03-29T06:56:05.464Z,100010.38
2023-03-29T06:58:32.086Z,100014.47
2023-03-29T07:01:04.031Z,100009.81
2023-03-29T07:03:31.713Z,100009.41
2023-03-29T07:06:04.460Z,100021.22
2023-03-29T07:08:31.706Z,100024.84
2023-03-29T07:10:59.399Z,100012.91
2023-03-29T07:13:26.367Z,100015.16
2023-03-29T07:15:53.751Z,100011.81
2023-03-29T07:18:21.057Z,100004.91
2023-03-29T07:20:48.523Z,100008.00
2023-03-29T07:23:16.034Z,100008.00
2023-03-29T07:25:42.637Z,100006.72
2023-03-29T07:28:09.250Z,100012.03
2023-03-29T07:30:37.242Z,100011.88
2023-03-29T07:33:04.626Z,100005.63
2023-03-29T07:35:31.370Z,100011.25
2023-03-29T07:37:58.626Z,100014.31
2023-03-29T07:40:27.367Z,100008.06
2023-03-29T07:42:56.728Z,100008.84
2023-03-29T07:45:26.743Z,100006.59
2023-03-29T07:47:57.404Z,100002.72
2023-03-29T07:50:24.714Z,100011.75
2023-03-29T07:52:51.754Z,100003.38
2023-03-29T07:55:18.846Z,100008.03
2023-03-29T07:57:45.535Z,100000.78
2023-03-29T08:00:16.950Z,100000.16
2023-03-29T08:02:45.771Z,99993.19
2023-03-29T08:05:15.444Z,99999.78
2023-03-29T08:07:46.469Z,100004.31
2023-03-29T08:10:18.094Z,100004.16
2023-03-29T08:12:47.532Z,100006.84
2023-03-29T08:15:14.894Z,100003.78
2023-03-29T08:17:41.934Z,99998.50
2023-03-29T08:20:12.075Z,99999.47
2023-03-29T08:22:39.219Z,99997.66
2023-03-29T08:25:07.331Z,99998.00
2023-03-29T08:27:35.149Z,100002.13
2023-03-29T08:30:01.813Z,99988.91
2023-03-29T08:32:28.518Z,99987.56
2023-03-29T08:34:55.441Z,99998.81
2023-03-29T08:37:23.984Z,99991.84
2023-03-29T08:39:50.554Z,99991.75
2023-03-29T08:42:38.799Z,99981.72
2023-03-29T08:45:14.806Z,99988.53
2023-03-29T08:48:01.655Z,99989.63
2023-03-29T08:50:36.929Z,99983.97
2023-03-29T08:53:18.818Z,99980.97
2023-03-29T08:55:48.082Z,99981.00
2023-03-29T08:58:19.473Z,99982.97
2023-03-29T09:00:53.253Z,99976.38
2023-03-29T09:03:26.169Z,99977.88
2023-03-29T09:05:59.820Z,99972.13
2023-03-29T09:08:27.910Z,99974.84
2023-03-29T09:11:09.656Z,99972.41
2023-03-29T09:14:03.414Z,99976.28
2023-03-29T09:16:38.808Z,99983.44
2023-03-29T09:19:27.801Z,99981.22
2023-03-29T09:22:23.431Z,99974.19
2023-03-29T09:24:54.247Z,99974.28
2023-03-29T09:27:27.915Z,99973.38
2023-03-29T09:30:19.391Z,99979.38
2023-03-29T09:33:13.824Z,99978.34
2023-03-29T09:35:47.024Z,99981.75
2023-03-29T09:38:16.223Z,99979.41
2023-03-29T09:40:50.028Z,99983.91
2023-03-29T09:43:24.791Z,99973.88
2023-03-29T09:45:56.381Z,99981.97
2023-03-29T09:48:25.000Z,99970.28
2023-03-29T09:50:52.355Z,99984.28
2023-03-29T09:53:21.377Z,99984.53
2023-03-29T09:55:50.640Z,99975.66
2023-03-29T09:58:23.852Z,99981.38
2023-03-29T10:00:51.202Z,99984.56
2023-03-29T10:03:23.875Z,99980.56
2023-03-29T10:05:54.504Z,99974.41
2023-03-29T10:08:28.033Z,99977.47
2023-03-29T10:10:58.232Z,99977.06
2023-03-29T10:13:36.967Z,99966.66
2023-03-29T10:16:06.111Z,99969.03
2023-03-29T10:18:34.254Z,99978.66
2023-03-29T10:21:03.835Z,99979.59
2023-03-29T10:23:36.587Z,99967.88
2023-03-29T10:26:07.884Z,99968.34
2023-03-29T10:28:36.811Z,99971.19
2023-03-29T10:31:06.029Z,99963.00
2023-03-29T10:33:35.989Z,99973.16
2023-03-29T10:36:06.988Z,99967.91
2023-03-29T10:38:37.233Z,99961.03
2023-03-29T10:41:08.083Z,99963.00
2023-03-29T10:43:42.974Z,99955.72
2023-03-29T10:46:13.497Z,99956.00
2023-03-29T10:48:46.238Z,99956.19
2023-03-29T10:51:14.558Z,99954.38
2023-03-29T10:53:41.661Z,99953.91
2023-03-29T10:56:27.995Z,99955.28
2023-03-29T10:59:00.657Z,99950.69
2023-03-29T11:01:31.911Z,99945.28
2023-03-29T11:03:59.065Z,99945.88
2023-03-29T11:06:45.097Z,99939.44
2023-03-29T11:09:33.850Z,99937.06
2023-03-29T11:12:38.592Z,99943.09
2023-03-29T11:15:10.832Z,99943.22
2023-03-29T11:18:11.919Z,99934.41
2023-03-29T11:20:56.661Z,99925.69
2023-03-29T11:23:39.895Z,99933.16
2023-03-29T11:26:22.606Z,99931.19
2023-03-29T11:29:25.805Z,99921.44
2023-03-29T11:32:14.110Z,99911.69
2023-03-29T11:35:19.327Z,99912.78
2023-03-29T11:37:55.778Z,99907.81
2023-03-29T11:40:44.782Z,99909.44
2023-03-29T11:43:27.956Z,99903.00
2023-03-29T11:46:10.066Z,99897.78
2023-03-29T11:48:47.584Z,99898.41
2023-03-29T11:51:28.514Z,99898.16
2023-03-29T11:54:00.122Z,99899.72
2023-03-29T11:56:36.198Z,99894.06
2023-03-29T11:59:22.352Z,99888.19
2023-03-29T12:01:56.595Z,99885.25
2023-03-29T12:04:33.055Z,99894.28
2023-03-29T12:07:08.751Z,99878.88
2023-03-29T12:09:41.549Z,99881.53
2023-03-29T12:12:17.913Z,99883.63
2023-03-29T12:14:57.277Z,99875.28
2023-03-29T12:17:30.807Z,99877.09
2023-03-29T12:20:06.714Z,99871.06
2023-03-29T12:22:33.981Z,99878.72
2023-03-29T12:25:04.190Z,99870.13
2023-03-29T12:27:39.789Z,99874.81
2023-03-29T12:30:18.519Z,99870.66
2023-03-29T12:33:05.220Z,99863.56
2023-03-29T12:35:59.565Z,99865.88
2023-03-29T12:38:30.975Z,99853.50
2023-03-29T12:41:00.624Z,99856.00
2023-03-29T12:43:32.460Z,99853.25
2023-03-29T12:46:09.613Z,99857.16
2023-03-29T12:48:41.719Z,99848.66
2023-03-29T12:51:13.972Z,99853.34
2023-03-29T12:53:45.490Z,99838.13
2023-03-29T12:56:21.955Z,99843.81
2023-03-29T12:59:10.796Z,99840.53
2023-03-29T13:01:41.158Z,99853.25
2023-03-29T13:04:22.458Z,99854.16
2023-03-29T13:06:54.201Z,99844.41
2023-03-29T13:09:51.229Z,99851.03
2023-03-29T13:12:35.915Z,99843.56
2023-03-29T13:15:05.916Z,99838.88
2023-03-29T13:17:57.619Z,99847.59
2023-03-29T13:20:34.389Z,99844.47
2023-03-29T13:23:07.388Z,99835.84
2023-03-29T13:26:11.485Z,99842.19
2023-03-29T13:28:56.539Z,99836.38
2023-03-29T13:31:31.391Z,99832.13
2023-03-29T13:34:28.964Z,99834.50
2023-03-29T13:37:23.152Z,99833.09
2023-03-29T13:39:53.098Z,99830.63
2023-03-29T13:42:34.868Z,99819.03
2023-03-29T13:45:27.108Z,99814.78
2023-03-29T13:48:31.753Z,99805.47
2023-03-29T13:51:02.317Z,99791.81
2023-03-29T13:53:37.784Z,99800.38
2023-03-29T13:56:11.061Z,99801.66
2023-03-29T13:58:51.297Z,99794.63
2023-03-29T14:01:29.840Z,99797.31
2023-03-29T14:03:57.725Z,99792.75
2023-03-29T14:06:33.665Z,99793.91
2023-03-29T14:09:06.450Z,99785.72
2023-03-29T14:11:33.815Z,99783.81
2023-03-29T14:14:11.007Z,99797.03
2023-03-29T14:16:40.183Z,99786.75
2023-03-29T14:19:22.495Z,99777.91
2023-03-29T14:21:52.174Z,99774.66
2023-03-29T14:24:26.044Z,99779.66
2023-03-29T14:26:54.738Z,99775.91
2023-03-29T14:29:23.508Z,99770.16
2023-03-29T14:31:51.613Z,99775.00
2023-03-29T14:34:19.274Z,99762.81
2023-03-29T14:36:49.243Z,99760.13
2023-03-29T14:39:21.673Z,99765.47
2023-03-29T14:41:58.304Z,99766.34
2023-03-29T14:44:31.870Z,99763.31
2023-03-29T14:46:59.917Z,99765.41
2023-03-29T14:49:28.301Z,99758.13
2023-03-29T14:51:55.277Z,99749.56
2023-03-29T14:54:22.153Z,99752.38
2023-03-29T14:56:50.153Z,99746.25
2023-03-29T14:59:38.537Z,99739.28
2023-03-29T15:02:21.908Z,99741.94
2023-03-29T15:04:58.889Z,99735.00
2023-03-29T15:07:27.340Z,99730.00
2023-03-29T15:09:55.301Z,99736.00
2023-03-29T15:12:22.392Z,99733.19
2023-03-29T15:14:52.189Z,99740.81
2023-03-29T15:17:47.645Z,99725.78
2023-03-29T15:20:41.878Z,99719.16
2023-03-29T15:23:14.439Z,99714.53
2023-03-29T15:25:58.768Z,99718.53
2023-03-29T15:28:34.581Z,99710.72
2023-03-29T15:31:13.041Z,99705.78
2023-03-29T15:33:41.805Z,99712.13
2023-03-29T15:36:11.383Z,99713.09
2023-03-29T15:38:44.650Z,99711.34
2023-03-29T15:41:15.587Z,99714.81
2023-03-29T15:43:42.962Z,99716.16
2023-03-29T15:46:13.026Z,99714.38
2023-03-29T15:48:40.520Z,99703.63
2023-03-29T15:51:07.641Z,99712.66
2023-03-29T15:53:35.836Z,99696.84
2023-03-29T15:56:05.532Z,99695.97
2023-03-29T15:58:33.697Z,99695.97
2023-03-29T16:01:34.139Z,99690.75
2023-03-29T16:04:02.694Z,99699.19
2023-03-29T16:06:29.287Z,99694.34
2023-03-29T16:08:57.415Z,99694.81
2023-03-29T16:11:24.268Z,99698.09
2023-03-29T16:13:51.486Z,99699.09
2023-03-29T16:16:18.352Z,99706.38
2023-03-29T16:18:45.118Z,99705.44
2023-03-29T16:21:18.226Z,99698.84
2023-03-29T16:23:46.140Z,99698.03
2023-03-29T16:26:16.479Z,99698.16
2023-03-29T16:28:43.462Z,99692.66
2023-03-29T16:31:11.901Z,99691.56
2023-03-29T16:33:39.554Z,99706.38
2023-03-29T16:36:07.031Z,99698.97
2023-03-29T16:38:34.209Z,99696.75
2023-03-29T16:41:01.622Z,99688.06
2023-03-29T16:43:28.684Z,99699.34
2023-03-29T16:45:55.357Z,99695.78
2023-03-29T16:48:22.184Z,99697.59
2023-03-29T16:50:49.571Z,99691.50
2023-03-29T16:53:18.644Z,99692.31
2023-03-29T16:55:46.744Z,99688.47
2023-03-29T16:58:13.471Z,99681.53
2023-03-29T17:00:40.935Z,99693.13
2023-03-29T17:03:08.237Z,99697.16
2023-03-29T17:05:39.981Z,99690.50
2023-03-29T17:08:09.008Z,99690.06
2023-03-29T17:10:35.918Z,99693.47
2023-03-29T17:13:02.629Z,99688.84
2023-03-29T17:15:29.514Z,99676.94
2023-03-29T17:17:56.156Z,99677.63
2023-03-29T17:20:22.754Z,99691.63
2023-03-29T17:22:52.148Z,99682.78
2023-03-29T17:25:18.749Z,99683.13
2023-03-29T17:27:46.144Z,99686.06
2023-03-29T17:30:13.057Z,99682.50
2023-03-29T17:32:41.445Z,99687.66
2023-03-29T17:35:09.651Z,99686.19
2023-03-29T17:37:36.586Z,99683.47
2023-03-29T17:40:30.933Z,99691.50
2023-03-29T17:42:57.629Z,99689.84
2023-03-29T17:45:24.357Z,99691.13
2023-03-29T17:47:51.254Z,99693.03
2023-03-29T17:50:18.058Z,99693.34
2023-03-29T17:52:45.226Z,99689.22
2023-03-29T17:55:13.831Z,99693.25
2023-03-29T17:57:41.441Z,99700.66
2023-03-29T18:00:12.116Z,99682.78
2023-03-29T18:02:40.134Z,99684.94
2023-03-29T18:05:09.511Z,99687.69
2023-03-29T18:07:37.349Z,99692.22
2023-03-29T18:10:04.622Z,99688.53
2023-03-29T18:12:31.616Z,99683.06
2023-03-29T18:14:58.365Z,99692.53
2023-03-29T18:17:27.671Z,99690.63
2023-03-29T18:19:54.602Z,99692.88
2023-03-29T18:22:23.982Z,99687.72
2023-03-29T18:24:51.124Z,99693.06
2023-03-29T18:27:18.687Z,99698.38
2023-03-29T18:29:45.762Z,99698.25
2023-03-29T18:32:13.659Z,99700.97
2023-03-29T18:34:40.477Z,99699.38
2023-03-29T18:37:09.450Z,99695.50
2023-03-29T18:39:36.325Z,99704.53
2023-03-29T18:42:03.007Z,99698.72
2023-03-29T18:44:29.787Z,99702.25
2023-03-29T18:46:56.459Z,99698.72
2023-03-29T18:49:24.995Z,99701.78
2023-03-29T18:51:52.195Z,99702.56
2023-03-29T18:54:18.850Z,99709.66
2023-03-29T18:56:45.518Z,99710.47
2023-03-29T18:59:12.659Z,99710.47
2023-03-29T19:01:39.362Z,99704.19
2023-03-29T19:04:06.451Z,99707.25
2023-03-29T19:06:33.187Z,99702.56
2023-03-29T19:09:02.104Z,99705.66
2023-03-29T19:11:31.689Z,99706.94
2023-03-29T19:13:58.319Z,99705.81
2023-03-29T19:16:25.881Z,99699.84
2023-03-29T19:18:53.052Z,99702.91
2023-03-29T19:21:19.877Z,99704.84
2023-03-29T19:23:46.575Z,99703.25
2023-03-29T19:26:15.322Z,99708.72
2023-03-29T19:28:42.134Z,99704.84
2023-03-29T19:31:08.885Z,99697.91
2023-03-29T19:33:35.658Z,99693.41
2023-03-29T19:36:02.484Z,99684.56
2023-03-29T19:38:29.493Z,99690.03
2023-03-29T19:40:56.827Z,99688.41
2023-03-29T19:43:25.086Z,99697.78
2023-03-29T19:45:52.141Z,99694.69
2023-03-29T19:48:23.485Z,99697.78
2023-03-29T19:50:50.704Z,99695.50
2023-03-29T19:53:17.515Z,99700.97
2023-03-29T19:55:45.692Z,99700.00
2023-03-29T19:58:12.924Z,99706.16
2023-03-29T20:00:41.856Z,99694.72
2023-03-29T20:03:13.956Z,99699.72
2023-03-29T20:05:41.145Z,99696.50
2023-03-29T20:08:08.180Z,99699.25
2023-03-29T20:10:36.037Z,99705.19
2023-03-29T20:13:03.494Z,99711.31
2023-03-29T20:15:32.809Z,99705.84
2023-03-29T20:18:00.448Z,99701.19
2023-03-29T20:20:28.480Z,99691.38
2023-03-29T20:22:58.531Z,99694.13
2023-03-29T20:25:26.077Z,99689.13
2023-03-29T20:27:53.206Z,99693.31
2023-03-29T20:30:20.579Z,99693.97
2023-03-29T20:32:47.487Z,99689.44
2023-03-29T20:35:14.224Z,99685.56
2023-03-29T20:37:40.856Z,99691.38
2023-03-29T20:40:08.645Z,99684.75
2023-03-29T20:42:36.756Z,99690.22
2023-03-29T20:45:04.390Z,99686.22
2023-03-29T20:47:31.269Z,99681.91
2023-03-29T20:49:57.992Z,99672.72
2023-03-29T20:52:25.851Z,99680.56
2023-03-29T20:54:52.543Z,99671.88
2023-03-29T20:57:21.167Z,99667.88
2023-03-29T20:59:49.581Z,99665.72
2023-03-29T21:02:22.973Z,99663.44
2023-03-29T21:04:53.933Z,99666.44
2023-03-29T21:07:21.702Z,99660.97
2023-03-29T21:09:50.006Z,99657.69
2023-03-29T21:12:17.444Z,99645.81
2023-03-29T21:14:44.698Z,99651.81
2023-03-29T21:17:11.482Z,99648.09
2023-03-29T21:19:39.408Z,99649.84
2023-03-29T21:22:06.224Z,99632.50
2023-03-29T21:24:33.484Z,99636.19
2023-03-29T21:27:00.669Z,99641.44
2023-03-29T21:29:27.467Z,99641.88
2023-03-29T21:31:55.003Z,99627.06
2023-03-29T21:34:21.723Z,99630.16
2023-03-29T21:36:48.369Z,99637.09
2023-03-29T21:39:15.043Z,99629.25
2023-03-29T21:41:41.756Z,99626.28
2023-03-29T21:44:08.824Z,99621.16
2023-03-29T21:46:35.678Z,99618.34
2023-03-29T21:49:02.611Z,99613.06
2023-03-29T21:51:29.223Z,99614.50
2023-03-29T21:53:56.127Z,99614.34
2023-03-29T21:56:23.164Z,99604.75
2023-03-29T21:58:49.766Z,99607.31
2023-03-29T22:01:16.407Z,99608.75
2023-03-29T22:03:43.186Z,99598.16
2023-03-29T22:06:13.889Z,99609.09
2023-03-29T22:08:40.653Z,99605.53
2023-03-29T22:11:14.360Z,99600.38
2023-03-29T22:13:42.136Z,99595.72
2023-03-29T22:16:10.918Z,99599.56
2023-03-29T22:18:43.967Z,99596.34
2023-03-29T22:21:25.329Z,99587.03
2023-03-29T22:23:54.278Z,99587.66
2023-03-29T22:26:24.596Z,99590.75
2023-03-29T22:28:51.784Z,99596.69
2023-03-29T22:31:21.143Z,99590.78
2023-03-29T22:33:48.263Z,99596.69
2023-03-29T22:36:21.952Z,99579.03
2023-03-29T22:38:49.921Z,99575.06
2023-03-29T22:41:18.142Z,99571.00
2023-03-29T22:43:45.345Z,99573.88
2023-03-29T22:46:13.450Z,99581.59
2023-03-29T22:48:40.201Z,99577.41
2023-03-29T22:51:06.947Z,99579.00
2023-03-29T22:53:34.004Z,99587.19
2023-03-29T22:56:01.283Z,99578.66
2023-03-29T22:58:29.464Z,99579.00
2023-03-29T23:00:57.683Z,99574.97
2023-03-29T23:03:24.410Z,99573.88
2023-03-29T23:05:55.819Z,99583.19
2023-03-29T23:08:23.748Z,99582.56
2023-03-29T23:10:51.642Z,99577.09
2023-03-29T23:13:26.022Z,99575.97
2023-03-29T23:15:55.336Z,99571.81
2023-03-29T23:18:23.797Z,99573.25
2023-03-29T23:20:52.412Z,99567.16
2023-03-29T23:23:20.461Z,99571.16
2023-03-29T23:25:48.318Z,99565.38
2023-03-29T23:28:17.021Z,99564.25
2023-03-29T23:30:43.821Z,99555.59
2023-03-29T23:33:10.641Z,99561.06
2023-03-29T23:35:37.753Z,99559.25
2023-03-29T23:38:05.841Z,99559.59
2023-03-29T23:40:33.320Z,99559.44
2023-03-29T23:43:01.557Z,99561.06
2023-03-29T23:45:28.164Z,99556.88
2023-03-29T23:47:56.161Z,99548.34
2023-03-29T23:50:23.685Z,99544.97
2023-03-29T23:52:51.609Z,99550.25
2023-03-29T23:55:18.625Z,99548.34
2023-03-29T23:57:45.444Z,99550.44
